sensor_id;sensor_type;location;lat;lon;timestamp;pressure;altitude;pressure_sealevel;temperature;humidity
34073;BME280;20346;52.702;16.886;2024-01-16T00:00:02;99198.92;;;-4.08;83.95
34073;BME280;20346;52.702;16.886;2024-01-16T00:02:49;99208.55;;;-4.15;84.03
34073;BME280;20346;52.702;16.886;2024-01-16T00:05:34;99217.88;;;-4.21;84.15
34073;BME280;20346;52.702;16.886;2024-01-16T00:08:20;99227.70;;;-4.26;84.01
34073;BME280;20346;52.702;16.886;2024-01-16T00:11:06;99232.65;;;-4.31;84.12
34073;BME280;20346;52.702;16.886;2024-01-16T00:13:52;99231.09;;;-4.33;84.15
34073;BME280;20346;52.702;16.886;2024-01-16T00:16:43;99232.57;;;-4.35;84.25
34073;BME280;20346;52.702;16.886;2024-01-16T00:19:29;99242.02;;;-4.32;84.20
34073;BME280;20346;52.702;16.886;2024-01-16T00:22:15;99245.33;;;-4.28;84.26
34073;BME280;20346;52.702;16.886;2024-01-16T00:25:01;99250.23;;;-4.27;84.07
34073;BME280;20346;52.702;16.886;2024-01-16T00:27:48;99253.70;;;-4.29;84.30
34073;BME280;20346;52.702;16.886;2024-01-16T00:30:34;99257.36;;;-4.31;84.36
34073;BME280;20346;52.702;16.886;2024-01-16T00:33:20;99258.30;;;-4.35;84.34
34073;BME280;20346;52.702;16.886;2024-01-16T00:36:07;99261.11;;;-4.37;84.41
34073;BME280;20346;52.702;16.886;2024-01-16T00:38:53;99267.38;;;-4.43;84.36
34073;BME280;20346;52.702;16.886;2024-01-16T00:41:39;99269.95;;;-4.48;84.31
34073;BME280;20346;52.702;16.886;2024-01-16T00:44:26;99266.67;;;-4.52;84.38
34073;BME280;20346;52.702;16.886;2024-01-16T00:47:12;99269.42;;;-4.56;84.34
34073;BME280;20346;52.702;16.886;2024-01-16T00:49:58;99272.66;;;-4.62;84.31
34073;BME280;20346;52.702;16.886;2024-01-16T00:52:46;99284.41;;;-4.62;84.25
34073;BME280;20346;52.702;16.886;2024-01-16T00:55:32;99290.98;;;-4.62;84.42
34073;BME280;20346;52.702;16.886;2024-01-16T00:58:19;99286.10;;;-4.62;84.34
34073;BME280;20346;52.702;16.886;2024-01-16T01:01:06;99293.34;;;-4.61;84.46
34073;BME280;20346;52.702;16.886;2024-01-16T01:03:52;99297.77;;;-4.59;84.41
34073;BME280;20346;52.702;16.886;2024-01-16T01:06:38;99297.55;;;-4.54;84.48
34073;BME280;20346;52.702;16.886;2024-01-16T01:09:24;99293.40;;;-4.52;84.37
34073;BME280;20346;52.702;16.886;2024-01-16T01:12:11;99300.80;;;-4.52;84.29
34073;BME280;20346;52.702;16.886;2024-01-16T01:14:57;99309.02;;;-4.53;84.23
34073;BME280;20346;52.702;16.886;2024-01-16T01:17:43;99305.95;;;-4.54;84.15
34073;BME280;20346;52.702;16.886;2024-01-16T01:20:30;99306.17;;;-4.59;84.11
34073;BME280;20346;52.702;16.886;2024-01-16T01:23:16;99312.52;;;-4.61;84.16
34073;BME280;20346;52.702;16.886;2024-01-16T01:26:02;99326.38;;;-4.65;84.20
34073;BME280;20346;52.702;16.886;2024-01-16T01:28:49;99336.55;;;-4.70;84.08
34073;BME280;20346;52.702;16.886;2024-01-16T01:31:36;99340.78;;;-4.76;84.05
34073;BME280;20346;52.702;16.886;2024-01-16T01:34:22;99344.98;;;-4.83;83.94
34073;BME280;20346;52.702;16.886;2024-01-16T01:37:08;99345.98;;;-4.89;84.04
34073;BME280;20346;52.702;16.886;2024-01-16T01:39:55;99353.56;;;-4.95;83.97
34073;BME280;20346;52.702;16.886;2024-01-16T01:42:42;99356.40;;;-5.02;83.96
34073;BME280;20346;52.702;16.886;2024-01-16T01:45:28;99359.15;;;-5.06;84.08
34073;BME280;20346;52.702;16.886;2024-01-16T01:48:14;99364.88;;;-5.12;84.04
34073;BME280;20346;52.702;16.886;2024-01-16T01:51:01;99367.60;;;-5.17;84.04
34073;BME280;20346;52.702;16.886;2024-01-16T01:53:50;99374.70;;;-5.23;84.03
34073;BME280;20346;52.702;16.886;2024-01-16T01:56:36;99380.80;;;-5.27;84.10
34073;BME280;20346;52.702;16.886;2024-01-16T01:59:23;99392.50;;;-5.29;84.06
34073;BME280;20346;52.702;16.886;2024-01-16T02:02:11;99390.14;;;-5.29;84.09
34073;BME280;20346;52.702;16.886;2024-01-16T02:04:57;99390.42;;;-5.31;84.06
34073;BME280;20346;52.702;16.886;2024-01-16T02:07:44;99394.36;;;-5.35;83.96
34073;BME280;20346;52.702;16.886;2024-01-16T02:10:30;99399.95;;;-5.33;84.10
34073;BME280;20346;52.702;16.886;2024-01-16T02:13:18;99405.70;;;-5.32;84.01
34073;BME280;20346;52.702;16.886;2024-01-16T02:16:19;99408.55;;;-5.32;83.98
34073;BME280;20346;52.702;16.886;2024-01-16T02:19:06;99416.67;;;-5.29;84.13
34073;BME280;20346;52.702;16.886;2024-01-16T02:21:56;99416.81;;;-5.30;83.97
34073;BME280;20346;52.702;16.886;2024-01-16T02:24:45;99416.25;;;-5.33;83.91
34073;BME280;20346;52.702;16.886;2024-01-16T02:27:31;99412.82;;;-5.36;84.00
34073;BME280;20346;52.702;16.886;2024-01-16T02:30:17;99410.14;;;-5.35;84.12
34073;BME280;20346;52.702;16.886;2024-01-16T02:33:03;99411.75;;;-5.31;84.17
34073;BME280;20346;52.702;16.886;2024-01-16T02:35:49;99418.55;;;-5.28;84.26
34073;BME280;20346;52.702;16.886;2024-01-16T02:38:35;99422.23;;;-5.23;84.35
34073;BME280;20346;52.702;16.886;2024-01-16T02:41:21;99425.80;;;-5.22;84.29
34073;BME280;20346;52.702;16.886;2024-01-16T02:44:07;99433.20;;;-5.21;84.35
34073;BME280;20346;52.702;16.886;2024-01-16T02:46:53;99439.47;;;-5.19;84.28
34073;BME280;20346;52.702;16.886;2024-01-16T02:49:39;99443.41;;;-5.16;84.44
34073;BME280;20346;52.702;16.886;2024-01-16T02:52:26;99444.41;;;-5.10;84.51
34073;BME280;20346;52.702;16.886;2024-01-16T02:55:12;99451.79;;;-5.04;84.60
34073;BME280;20346;52.702;16.886;2024-01-16T02:57:57;99462.84;;;-4.99;84.60
34073;BME280;20346;52.702;16.886;2024-01-16T03:00:43;99468.05;;;-4.93;84.79
34073;BME280;20346;52.702;16.886;2024-01-16T03:03:29;99469.85;;;-4.89;84.63
34073;BME280;20346;52.702;16.886;2024-01-16T03:06:22;99469.73;;;-4.87;84.74
34073;BME280;20346;52.702;16.886;2024-01-16T03:09:10;99469.79;;;-4.85;84.82
34073;BME280;20346;52.702;16.886;2024-01-16T03:11:59;99473.04;;;-4.83;84.69
34073;BME280;20346;52.702;16.886;2024-01-16T03:14:45;99478.76;;;-4.83;84.59
34073;BME280;20346;52.702;16.886;2024-01-16T03:17:31;99482.19;;;-4.86;84.62
34073;BME280;20346;52.702;16.886;2024-01-16T03:20:17;99476.38;;;-4.84;84.77
34073;BME280;20346;52.702;16.886;2024-01-16T03:23:04;99475.58;;;-4.82;84.75
34073;BME280;20346;52.702;16.886;2024-01-16T03:25:50;99480.71;;;-4.85;84.70
34073;BME280;20346;52.702;16.886;2024-01-16T03:28:35;99489.52;;;-4.89;84.62
34073;BME280;20346;52.702;16.886;2024-01-16T03:31:21;99496.11;;;-4.87;84.79
34073;BME280;20346;52.702;16.886;2024-01-16T03:34:07;99502.55;;;-4.91;84.58
34073;BME280;20346;52.702;16.886;2024-01-16T03:36:56;99502.67;;;-4.93;84.65
34073;BME280;20346;52.702;16.886;2024-01-16T03:39:42;99499.10;;;-4.95;84.63
34073;BME280;20346;52.702;16.886;2024-01-16T03:42:30;99501.64;;;-4.94;84.71
34073;BME280;20346;52.702;16.886;2024-01-16T03:45:16;99503.46;;;-4.95;84.67
34073;BME280;20346;52.702;16.886;2024-01-16T03:48:02;99508.72;;;-4.99;84.59
34073;BME280;20346;52.702;16.886;2024-01-16T03:50:51;99515.09;;;-5.00;84.80
34073;BME280;20346;52.702;16.886;2024-01-16T03:53:37;99520.84;;;-4.98;84.91
34073;BME280;20346;52.702;16.886;2024-01-16T03:56:23;99526.30;;;-4.96;84.96
34073;BME280;20346;52.702;16.886;2024-01-16T03:59:09;99534.88;;;-4.95;84.81
34073;BME280;20346;52.702;16.886;2024-01-16T04:02:04;99536.94;;;-5.00;84.64
34073;BME280;20346;52.702;16.886;2024-01-16T04:05:10;99532.32;;;-5.03;84.80
34073;BME280;20346;52.702;16.886;2024-01-16T04:07:57;99533.34;;;-5.02;84.80
34073;BME280;20346;52.702;16.886;2024-01-16T04:10:43;99539.80;;;-5.06;84.73
34073;BME280;20346;52.702;16.886;2024-01-16T04:13:29;99549.00;;;-5.13;84.67
34073;BME280;20346;52.702;16.886;2024-01-16T04:16:16;99552.98;;;-5.20;84.68
34073;BME280;20346;52.702;16.886;2024-01-16T04:19:02;99557.09;;;-5.29;84.62
34073;BME280;20346;52.702;16.886;2024-01-16T04:21:49;99563.15;;;-5.40;84.55
34073;BME280;20346;52.702;16.886;2024-01-16T04:24:35;99569.52;;;-5.56;84.45
34073;BME280;20346;52.702;16.886;2024-01-16T04:27:22;99578.14;;;-5.81;84.28
34073;BME280;20346;52.702;16.886;2024-01-16T04:30:09;99582.61;;;-5.99;84.30
34073;BME280;20346;52.702;16.886;2024-01-16T04:32:55;99577.42;;;-6.14;84.33
34073;BME280;20346;52.702;16.886;2024-01-16T04:35:41;99576.02;;;-6.32;84.23
34073;BME280;20346;52.702;16.886;2024-01-16T04:38:27;99585.53;;;-6.47;84.31
34073;BME280;20346;52.702;16.886;2024-01-16T04:41:17;99584.70;;;-6.57;84.24
34073;BME280;20346;52.702;16.886;2024-01-16T04:44:04;99584.30;;;-6.72;84.19
34073;BME280;20346;52.702;16.886;2024-01-16T04:46:50;99585.04;;;-6.80;84.43
34073;BME280;20346;52.702;16.886;2024-01-16T04:49:36;99590.67;;;-6.91;84.23
34073;BME280;20346;52.702;16.886;2024-01-16T04:52:22;99596.39;;;-6.99;84.20
34073;BME280;20346;52.702;16.886;2024-01-16T04:55:08;99600.05;;;-7.05;84.14
34073;BME280;20346;52.702;16.886;2024-01-16T04:57:55;99600.23;;;-7.09;84.12
34073;BME280;20346;52.702;16.886;2024-01-16T05:00:41;99605.80;;;-7.12;84.12
34073;BME280;20346;52.702;16.886;2024-01-16T05:03:27;99607.00;;;-7.15;84.11
34073;BME280;20346;52.702;16.886;2024-01-16T05:06:14;99603.77;;;-7.21;83.97
34073;BME280;20346;52.702;16.886;2024-01-16T05:09:03;99608.33;;;-7.24;84.01
34073;BME280;20346;52.702;16.886;2024-01-16T05:11:49;99609.82;;;-7.30;83.92
34073;BME280;20346;52.702;16.886;2024-01-16T05:14:35;99609.17;;;-7.38;83.75
34073;BME280;20346;52.702;16.886;2024-01-16T05:17:21;99616.61;;;-7.49;83.66
34073;BME280;20346;52.702;16.886;2024-01-16T05:20:07;99616.77;;;-7.62;83.45
34073;BME280;20346;52.702;16.886;2024-01-16T05:22:53;99625.41;;;-7.75;83.45
34073;BME280;20346;52.702;16.886;2024-01-16T05:25:59;99635.23;;;-7.93;83.13
34073;BME280;20346;52.702;16.886;2024-01-16T05:28:45;99639.11;;;-8.05;83.32
34073;BME280;20346;52.702;16.886;2024-01-16T05:31:31;99642.91;;;-8.10;83.44
34073;BME280;20346;52.702;16.886;2024-01-16T05:34:17;99644.91;;;-8.14;83.59
34073;BME280;20346;52.702;16.886;2024-01-16T05:37:03;99648.69;;;-8.19;83.62
34073;BME280;20346;52.702;16.886;2024-01-16T05:39:49;99647.73;;;-8.30;83.56
34073;BME280;20346;52.702;16.886;2024-01-16T05:42:35;99652.11;;;-8.34;83.64
34073;BME280;20346;52.702;16.886;2024-01-16T05:45:21;99652.16;;;-8.37;83.69
34073;BME280;20346;52.702;16.886;2024-01-16T05:48:07;99657.91;;;-8.39;83.68
34073;BME280;20346;52.702;16.886;2024-01-16T05:50:54;99662.07;;;-8.43;83.63
34073;BME280;20346;52.702;16.886;2024-01-16T05:53:40;99666.09;;;-8.50;83.50
34073;BME280;20346;52.702;16.886;2024-01-16T05:56:26;99668.45;;;-8.58;83.39
34073;BME280;20346;52.702;16.886;2024-01-16T05:59:12;99670.02;;;-8.63;83.44
34073;BME280;20346;52.702;16.886;2024-01-16T06:01:58;99670.39;;;-8.66;83.57
34073;BME280;20346;52.702;16.886;2024-01-16T06:04:44;99675.80;;;-8.69;83.44
34073;BME280;20346;52.702;16.886;2024-01-16T06:07:30;99680.24;;;-8.71;83.37
34073;BME280;20346;52.702;16.886;2024-01-16T06:10:17;99688.84;;;-8.76;83.22
34073;BME280;20346;52.702;16.886;2024-01-16T06:13:03;99690.72;;;-8.82;83.55
34073;BME280;20346;52.702;16.886;2024-01-16T06:15:49;99694.26;;;-8.81;83.73
34073;BME280;20346;52.702;16.886;2024-01-16T06:18:36;99691.65;;;-8.84;83.61
34073;BME280;20346;52.702;16.886;2024-01-16T06:21:22;99693.97;;;-8.88;83.48
34073;BME280;20346;52.702;16.886;2024-01-16T06:24:08;99699.55;;;-8.98;83.31
34073;BME280;20346;52.702;16.886;2024-01-16T06:26:55;99703.67;;;-9.06;83.26
34073;BME280;20346;52.702;16.886;2024-01-16T06:29:41;99710.84;;;-9.13;83.21
34073;BME280;20346;52.702;16.886;2024-01-16T06:32:27;99716.30;;;-9.21;83.26
34073;BME280;20346;52.702;16.886;2024-01-16T06:35:15;99716.07;;;-9.22;83.37
34073;BME280;20346;52.702;16.886;2024-01-16T06:38:01;99720.81;;;-9.28;83.25
34073;BME280;20346;52.702;16.886;2024-01-16T06:40:48;99723.14;;;-9.31;83.22
34073;BME280;20346;52.702;16.886;2024-01-16T06:43:34;99727.93;;;-9.36;83.21
34073;BME280;20346;52.702;16.886;2024-01-16T06:46:20;99730.64;;;-9.42;83.01
34073;BME280;20346;52.702;16.886;2024-01-16T06:49:06;99734.55;;;-9.51;83.01
34073;BME280;20346;52.702;16.886;2024-01-16T06:51:53;99739.81;;;-9.56;83.02
34073;BME280;20346;52.702;16.886;2024-01-16T06:54:39;99744.67;;;-9.59;83.05
34073;BME280;20346;52.702;16.886;2024-01-16T06:57:25;99751.89;;;-9.64;83.04
34073;BME280;20346;52.702;16.886;2024-01-16T07:00:12;99757.48;;;-9.69;82.97
34073;BME280;20346;52.702;16.886;2024-01-16T07:03:00;99765.08;;;-9.74;82.95
34073;BME280;20346;52.702;16.886;2024-01-16T07:05:45;99772.54;;;-9.78;82.88
34073;BME280;20346;52.702;16.886;2024-01-16T07:08:31;99784.75;;;-9.81;82.96
34073;BME280;20346;52.702;16.886;2024-01-16T07:11:18;99789.34;;;-9.82;82.96
34073;BME280;20346;52.702;16.886;2024-01-16T07:14:06;99798.37;;;-9.82;83.08
34073;BME280;20346;52.702;16.886;2024-01-16T07:16:53;99803.05;;;-9.78;83.08
34073;BME280;20346;52.702;16.886;2024-01-16T07:19:40;99809.25;;;-9.75;83.11
34073;BME280;20346;52.702;16.886;2024-01-16T07:22:26;99816.21;;;-9.69;83.20
34073;BME280;20346;52.702;16.886;2024-01-16T07:25:13;99820.19;;;-9.66;83.18
34073;BME280;20346;52.702;16.886;2024-01-16T07:27:59;99820.27;;;-9.64;83.09
34073;BME280;20346;52.702;16.886;2024-01-16T07:30:46;99826.42;;;-9.64;83.07
34073;BME280;20346;52.702;16.886;2024-01-16T07:33:32;99828.23;;;-9.62;83.04
34073;BME280;20346;52.702;16.886;2024-01-16T07:36:18;99827.38;;;-9.49;83.26
34073;BME280;20346;52.702;16.886;2024-01-16T07:39:04;99830.61;;;-9.31;83.34
34073;BME280;20346;52.702;16.886;2024-01-16T07:41:50;99828.38;;;-9.12;83.58
34073;BME280;20346;52.702;16.886;2024-01-16T07:44:36;99831.77;;;-8.84;83.78
34073;BME280;20346;52.702;16.886;2024-01-16T07:47:22;99835.55;;;-8.35;83.93
34073;BME280;20346;52.702;16.886;2024-01-16T07:50:08;99833.35;;;-7.76;83.95
34073;BME280;20346;52.702;16.886;2024-01-16T07:52:56;99836.45;;;-7.39;83.95
34073;BME280;20346;52.702;16.886;2024-01-16T07:55:42;99841.61;;;-7.15;83.69
34073;BME280;20346;52.702;16.886;2024-01-16T07:58:28;99841.45;;;-6.74;84.06
34073;BME280;20346;52.702;16.886;2024-01-16T08:01:14;99846.36;;;-6.30;84.15
34073;BME280;20346;52.702;16.886;2024-01-16T08:04:00;99845.16;;;-5.81;84.15
34073;BME280;20346;52.702;16.886;2024-01-16T08:06:46;99853.23;;;-5.62;84.10
34073;BME280;20346;52.702;16.886;2024-01-16T08:09:32;99861.52;;;-5.46;84.29
34073;BME280;20346;52.702;16.886;2024-01-16T08:12:18;99864.77;;;-5.20;84.55
34073;BME280;20346;52.702;16.886;2024-01-16T08:15:05;99866.02;;;-5.03;84.65
34073;BME280;20346;52.702;16.886;2024-01-16T08:17:53;99868.38;;;-4.93;84.66
34073;BME280;20346;52.702;16.886;2024-01-16T08:20:39;99873.46;;;-4.86;84.69
34073;BME280;20346;52.702;16.886;2024-01-16T08:23:25;99880.52;;;-4.82;84.60
34073;BME280;20346;52.702;16.886;2024-01-16T08:26:11;99892.58;;;-4.88;84.43
34073;BME280;20346;52.702;16.886;2024-01-16T08:28:57;99892.27;;;-4.87;84.69
34073;BME280;20346;52.702;16.886;2024-01-16T08:31:43;99880.90;;;-4.76;84.94
34073;BME280;20346;52.702;16.886;2024-01-16T08:34:29;99883.98;;;-4.58;85.26
34073;BME280;20346;52.702;16.886;2024-01-16T08:37:16;99888.69;;;-4.47;85.28
34073;BME280;20346;52.702;16.886;2024-01-16T08:40:02;99891.27;;;-4.36;85.34
34073;BME280;20346;52.702;16.886;2024-01-16T08:42:50;99896.00;;;-4.29;85.36
34073;BME280;20346;52.702;16.886;2024-01-16T08:45:41;99906.79;;;-4.23;85.40
34073;BME280;20346;52.702;16.886;2024-01-16T08:48:27;99914.35;;;-4.24;85.22
34073;BME280;20346;52.702;16.886;2024-01-16T08:51:13;99913.31;;;-4.30;84.90
34073;BME280;20346;52.702;16.886;2024-01-16T08:53:59;99914.77;;;-4.31;84.88
34073;BME280;20346;52.702;16.886;2024-01-16T08:56:46;99911.59;;;-4.26;85.06
34073;BME280;20346;52.702;16.886;2024-01-16T08:59:32;99913.95;;;-4.14;85.25
34073;BME280;20346;52.702;16.886;2024-01-16T09:02:18;99921.89;;;-4.03;85.34
34073;BME280;20346;52.702;16.886;2024-01-16T09:05:05;99923.98;;;-3.95;85.41
34073;BME280;20346;52.702;16.886;2024-01-16T09:07:51;99927.84;;;-3.84;85.35
34073;BME280;20346;52.702;16.886;2024-01-16T09:10:38;99929.89;;;-3.78;85.41
34073;BME280;20346;52.702;16.886;2024-01-16T09:13:24;99937.02;;;-3.76;85.37
34073;BME280;20346;52.702;16.886;2024-01-16T09:16:10;99944.45;;;-3.76;85.11
34073;BME280;20346;52.702;16.886;2024-01-16T09:18:56;99940.56;;;-3.70;85.15
34073;BME280;20346;52.702;16.886;2024-01-16T09:21:42;99942.13;;;-3.56;85.08
34073;BME280;20346;52.702;16.886;2024-01-16T09:24:29;99939.80;;;-3.38;85.43
34073;BME280;20346;52.702;16.886;2024-01-16T09:27:16;99940.11;;;-3.15;85.44
34073;BME280;20346;52.702;16.886;2024-01-16T09:30:04;99937.84;;;-3.06;85.42
34073;BME280;20346;52.702;16.886;2024-01-16T09:32:50;99941.14;;;-2.96;85.20
34073;BME280;20346;52.702;16.886;2024-01-16T09:35:36;99942.27;;;-2.98;84.93
34073;BME280;20346;52.702;16.886;2024-01-16T09:38:22;99940.73;;;-2.98;84.86
34073;BME280;20346;52.702;16.886;2024-01-16T09:41:10;99933.38;;;-2.90;85.35
34073;BME280;20346;52.702;16.886;2024-01-16T09:43:56;99939.83;;;-2.83;85.28
34073;BME280;20346;52.702;16.886;2024-01-16T09:46:44;99937.27;;;-2.56;85.72
34073;BME280;20346;52.702;16.886;2024-01-16T09:49:34;99938.61;;;-2.02;86.06
34073;BME280;20346;52.702;16.886;2024-01-16T09:52:20;99933.82;;;-1.75;83.46
34073;BME280;20346;52.702;16.886;2024-01-16T09:55:06;99941.77;;;-1.35;83.42
34073;BME280;20346;52.702;16.886;2024-01-16T09:57:53;99947.17;;;-1.27;82.46
34073;BME280;20346;52.702;16.886;2024-01-16T10:00:39;99953.75;;;-1.11;82.59
34073;BME280;20346;52.702;16.886;2024-01-16T10:03:28;99957.89;;;-0.98;82.09
34073;BME280;20346;52.702;16.886;2024-01-16T10:06:17;99961.23;;;-0.64;84.21
34073;BME280;20346;52.702;16.886;2024-01-16T10:09:05;99960.67;;;-0.38;82.76
34073;BME280;20346;52.702;16.886;2024-01-16T10:11:52;99962.74;;;-0.65;82.07
34073;BME280;20346;52.702;16.886;2024-01-16T10:14:40;99963.71;;;-0.77;83.49
34073;BME280;20346;52.702;16.886;2024-01-16T10:17:37;99967.02;;;-0.80;82.75
34073;BME280;20346;52.702;16.886;2024-01-16T10:20:33;99971.39;;;-1.17;81.61
34073;BME280;20346;52.702;16.886;2024-01-16T10:23:30;99971.33;;;-1.36;82.69
34073;BME280;20346;52.702;16.886;2024-01-16T10:26:21;99972.20;;;-1.43;82.54
34073;BME280;20346;52.702;16.886;2024-01-16T10:29:07;99975.92;;;-1.42;82.62
34073;BME280;20346;52.702;16.886;2024-01-16T10:31:55;99979.59;;;-1.52;82.61
34073;BME280;20346;52.702;16.886;2024-01-16T10:34:41;99983.09;;;-1.55;82.81
34073;BME280;20346;52.702;16.886;2024-01-16T10:37:28;99979.31;;;-1.65;82.11
34073;BME280;20346;52.702;16.886;2024-01-16T10:40:18;99977.96;;;-1.73;82.12
34073;BME280;20346;52.702;16.886;2024-01-16T10:43:05;99977.84;;;-1.85;82.19
34073;BME280;20346;52.702;16.886;2024-01-16T10:46:06;99974.33;;;-1.84;82.11
34073;BME280;20346;52.702;16.886;2024-01-16T10:49:01;99976.98;;;-1.71;81.10
34073;BME280;20346;52.702;16.886;2024-01-16T10:51:47;99980.45;;;-1.44;81.87
34073;BME280;20346;52.702;16.886;2024-01-16T10:54:37;99975.14;;;-1.23;80.47
34073;BME280;20346;52.702;16.886;2024-01-16T10:57:28;99964.86;;;-1.05;80.48
34073;BME280;20346;52.702;16.886;2024-01-16T11:00:21;99958.05;;;-0.71;81.75
34073;BME280;20346;52.702;16.886;2024-01-16T11:03:11;99965.17;;;-0.32;81.82
34073;BME280;20346;52.702;16.886;2024-01-16T11:05:58;99963.23;;;0.39;79.32
34073;BME280;20346;52.702;16.886;2024-01-16T11:08:46;99959.31;;;1.04;81.60
34073;BME280;20346;52.702;16.886;2024-01-16T11:11:33;99956.15;;;1.62;81.48
34073;BME280;20346;52.702;16.886;2024-01-16T11:14:22;99957.52;;;1.80;81.84
34073;BME280;20346;52.702;16.886;2024-01-16T11:17:09;99963.58;;;1.56;77.94
34073;BME280;20346;52.702;16.886;2024-01-16T11:20:04;99979.86;;;0.65;76.70
34073;BME280;20346;52.702;16.886;2024-01-16T11:22:56;99988.02;;;0.07;76.64
34073;BME280;20346;52.702;16.886;2024-01-16T11:25:45;99989.27;;;0.02;80.07
34073;BME280;20346;52.702;16.886;2024-01-16T11:28:31;99989.45;;;0.13;79.39
34073;BME280;20346;52.702;16.886;2024-01-16T11:31:31;99997.52;;;-0.03;78.47
34073;BME280;20346;52.702;16.886;2024-01-16T11:37:39;100007.61;;;-0.45;78.02
34073;BME280;20346;52.702;16.886;2024-01-16T11:40:32;100017.82;;;-0.70;77.49
34073;BME280;20346;52.702;16.886;2024-01-16T11:46:59;100012.23;;;-0.96;78.34
34073;BME280;20346;52.702;16.886;2024-01-16T11:49:47;100017.09;;;-1.15;76.32
34073;BME280;20346;52.702;16.886;2024-01-16T11:52:41;100015.60;;;-1.29;76.50
34073;BME280;20346;52.702;16.886;2024-01-16T11:55:32;100023.15;;;-1.39;77.88
34073;BME280;20346;52.702;16.886;2024-01-16T11:59:13;100023.38;;;-1.44;77.66
34073;BME280;20346;52.702;16.886;2024-01-16T12:01:41;100014.28;;;-1.35;77.74
34073;BME280;20346;52.702;16.886;2024-01-16T12:04:30;100012.86;;;-1.38;77.59
34073;BME280;20346;52.702;16.886;2024-01-16T12:07:17;100015.40;;;-1.22;79.22
34073;BME280;20346;52.702;16.886;2024-01-16T12:10:03;100011.34;;;-0.98;79.55
34073;BME280;20346;52.702;16.886;2024-01-16T12:12:51;100008.46;;;-0.81;77.83
34073;BME280;20346;52.702;16.886;2024-01-16T12:15:37;100006.98;;;-0.52;78.51
34073;BME280;20346;52.702;16.886;2024-01-16T12:18:24;100005.04;;;0.12;79.84
34073;BME280;20346;52.702;16.886;2024-01-16T12:21:11;100005.70;;;0.33;77.65
34073;BME280;20346;52.702;16.886;2024-01-16T12:23:57;100005.58;;;0.15;78.51
34073;BME280;20346;52.702;16.886;2024-01-16T12:26:44;99999.58;;;0.82;80.26
34073;BME280;20346;52.702;16.886;2024-01-16T12:29:31;99992.16;;;1.99;80.23
34073;BME280;20346;52.702;16.886;2024-01-16T12:32:19;99992.17;;;2.76;77.99
34073;BME280;20346;52.702;16.886;2024-01-16T12:35:07;99986.85;;;3.00;76.15
34073;BME280;20346;52.702;16.886;2024-01-16T12:37:57;99979.10;;;3.28;78.52
34073;BME280;20346;52.702;16.886;2024-01-16T12:40:49;99980.04;;;3.83;78.23
34073;BME280;20346;52.702;16.886;2024-01-16T12:43:37;99984.63;;;4.31;77.21
34073;BME280;20346;52.702;16.886;2024-01-16T12:46:24;99988.36;;;4.58;78.29
34073;BME280;20346;52.702;16.886;2024-01-16T12:49:11;99989.47;;;4.81;79.33
34073;BME280;20346;52.702;16.886;2024-01-16T12:52:23;99992.08;;;4.69;73.47
34073;BME280;20346;52.702;16.886;2024-01-16T12:55:13;99998.29;;;4.11;72.40
34073;BME280;20346;52.702;16.886;2024-01-16T12:58:17;99999.13;;;3.65;75.31
34073;BME280;20346;52.702;16.886;2024-01-16T13:01:23;99998.25;;;3.02;75.55
34073;BME280;20346;52.702;16.886;2024-01-16T13:04:10;99996.34;;;2.59;76.86
34073;BME280;20346;52.702;16.886;2024-01-16T13:07:03;99992.91;;;2.06;76.79
34073;BME280;20346;52.702;16.886;2024-01-16T13:10:05;99992.07;;;1.69;76.09
34073;BME280;20346;52.702;16.886;2024-01-16T13:12:52;99988.75;;;1.60;76.50
34073;BME280;20346;52.702;16.886;2024-01-16T13:15:38;99991.63;;;1.59;75.85
34073;BME280;20346;52.702;16.886;2024-01-16T13:18:25;99992.99;;;1.77;77.61
34073;BME280;20346;52.702;16.886;2024-01-16T13:21:12;99996.98;;;2.07;77.90
34073;BME280;20346;52.702;16.886;2024-01-16T13:23:58;99999.84;;;2.24;77.55
34073;BME280;20346;52.702;16.886;2024-01-16T13:26:44;99997.52;;;2.32;76.61
34073;BME280;20346;52.702;16.886;2024-01-16T13:29:30;99997.95;;;2.45;77.11
34073;BME280;20346;52.702;16.886;2024-01-16T13:32:21;99995.21;;;2.70;77.80
34073;BME280;20346;52.702;16.886;2024-01-16T13:35:07;100002.58;;;2.79;75.95
34073;BME280;20346;52.702;16.886;2024-01-16T13:37:54;100005.06;;;2.99;77.85
34073;BME280;20346;52.702;16.886;2024-01-16T13:40:40;100011.30;;;3.30;77.99
34073;BME280;20346;52.702;16.886;2024-01-16T13:43:26;100007.35;;;3.24;76.45
34073;BME280;20346;52.702;16.886;2024-01-16T13:46:12;100011.20;;;3.05;75.16
34073;BME280;20346;52.702;16.886;2024-01-16T13:48:59;100008.59;;;2.60;74.90
34073;BME280;20346;52.702;16.886;2024-01-16T13:51:46;100008.90;;;2.08;73.77
34073;BME280;20346;52.702;16.886;2024-01-16T13:54:32;100013.61;;;1.49;73.00
34073;BME280;20346;52.702;16.886;2024-01-16T13:57:21;100013.41;;;1.00;74.39
34073;BME280;20346;52.702;16.886;2024-01-16T14:00:10;100009.98;;;0.72;74.98
34073;BME280;20346;52.702;16.886;2024-01-16T14:02:59;100010.09;;;0.32;74.67
34073;BME280;20346;52.702;16.886;2024-01-16T14:05:46;100013.52;;;0.02;75.44
34073;BME280;20346;52.702;16.886;2024-01-16T14:08:33;100019.34;;;-0.15;75.66
34073;BME280;20346;52.702;16.886;2024-01-16T14:11:19;100026.20;;;-0.38;75.85
34073;BME280;20346;52.702;16.886;2024-01-16T14:14:05;100025.52;;;-0.47;76.15
34073;BME280;20346;52.702;16.886;2024-01-16T14:16:51;100025.41;;;-0.54;76.35
34073;BME280;20346;52.702;16.886;2024-01-16T14:19:37;100028.82;;;-0.61;76.17
34073;BME280;20346;52.702;16.886;2024-01-16T14:22:23;100034.23;;;-0.70;76.46
34073;BME280;20346;52.702;16.886;2024-01-16T14:25:11;100032.25;;;-0.76;76.55
34073;BME280;20346;52.702;16.886;2024-01-16T14:27:59;100035.73;;;-0.96;76.20
34073;BME280;20346;52.702;16.886;2024-01-16T14:30:46;100034.98;;;-1.09;75.50
34073;BME280;20346;52.702;16.886;2024-01-16T14:33:35;100034.41;;;-1.19;76.05
34073;BME280;20346;52.702;16.886;2024-01-16T14:36:41;100035.62;;;-1.26;76.37
34073;BME280;20346;52.702;16.886;2024-01-16T14:39:27;100032.67;;;-1.29;76.43
34073;BME280;20346;52.702;16.886;2024-01-16T14:42:16;100031.77;;;-1.39;75.78